< < Back
Terminal Aerodrome Forecast


Current Version              Previous Versions:   1  2  3  4  5  6  7  8  9  

Terminal Aerodrome Forecast

809
FTUS42 KFFC 271950 AAA
TAFPDK
TAF AMD
KPDK 271950Z 2720/2818 24006KT P6SM FEW050
     FM272100 23007KT P6SM VCSH SCT050
      TEMPO 2722/2802 VRB15G35KT 3SM -TSRA BKN035CB
     FM280400 VRB03KT P6SM SCT070 BKN120
     FM281400 35005KT P6SM VCSH SCT035 BKN050 PROB30 2814/2818 5SM
      -TSRA BKN035CB=

Latest METAR

809
SAUS70 KWBC 280700 RRP
MTRPDK
METAR KPDK 280653Z AUTO 03003KT 10SM CLR 23/21 A3001 RMK AO2 SLP139
T02330211


USA.gov is the U.S. government's official web portal to all federal, state and local government web resources and services.